Aviation Digital Data Service (ADDS)

Output produced by TAFs form (0313 UTC 30 September 2016)
found at http://aviationweather.gov/adds/tafs/
 
KFMN 292335Z 3000/3024 05008KT P6SM -RA OVC080 
     FM300300 05005KT P6SM SCT050 SCT080 
     FM301000 08005KT P6SM BKN060 
     FM301500 VRB06KT P6SM SCT060 
     FM302100 28010KT P6SM FEW060